sensor_id;sensor_type;location;lat;lon;timestamp;temperature;humidity
39019;DHT22;24786;51.984;5.872;2022-10-16T00:00:49;12.30;99.90
39019;DHT22;24786;51.984;5.872;2022-10-16T00:03:15;12.30;99.90
39019;DHT22;24786;51.984;5.872;2022-10-16T00:05:42;12.20;99.90
39019;DHT22;24786;51.984;5.872;2022-10-16T00:08:12;12.30;99.90
39019;DHT22;24786;51.984;5.872;2022-10-16T00:10:38;12.30;99.90
39019;DHT22;24786;51.984;5.872;2022-10-16T00:13:04;12.20;99.90
39019;DHT22;24786;51.984;5.872;2022-10-16T00:15:32;12.20;99.90
39019;DHT22;24786;51.984;5.872;2022-10-16T00:17:58;12.20;99.90
39019;DHT22;24786;51.984;5.872;2022-10-16T00:20:24;12.20;99.90
39019;DHT22;24786;51.984;5.872;2022-10-16T00:22:52;12.20;99.90
39019;DHT22;24786;51.984;5.872;2022-10-16T00:25:18;12.20;99.90
39019;DHT22;24786;51.984;5.872;2022-10-16T00:27:52;12.20;99.90
39019;DHT22;24786;51.984;5.872;2022-10-16T00:30:17;12.20;99.90
39019;DHT22;24786;51.984;5.872;2022-10-16T00:32:52;12.30;99.90
39019;DHT22;24786;51.984;5.872;2022-10-16T00:35:17;12.30;99.90
39019;DHT22;24786;51.984;5.872;2022-10-16T00:37:43;12.30;99.90
39019;DHT22;24786;51.984;5.872;2022-10-16T00:40:09;12.30;99.90
39019;DHT22;24786;51.984;5.872;2022-10-16T00:42:35;12.30;99.90
39019;DHT22;24786;51.984;5.872;2022-10-16T00:45:10;12.30;99.90
39019;DHT22;24786;51.984;5.872;2022-10-16T00:47:43;12.30;99.90
39019;DHT22;24786;51.984;5.872;2022-10-16T00:50:31;12.30;99.90
39019;DHT22;24786;51.984;5.872;2022-10-16T00:52:58;12.30;99.90
39019;DHT22;24786;51.984;5.872;2022-10-16T00:55:24;12.30;99.90
39019;DHT22;24786;51.984;5.872;2022-10-16T00:58:05;12.30;99.90
39019;DHT22;24786;51.984;5.872;2022-10-16T01:00:31;12.30;99.90
39019;DHT22;24786;51.984;5.872;2022-10-16T01:02:59;12.30;99.90
39019;DHT22;24786;51.984;5.872;2022-10-16T01:05:49;12.20;99.90
39019;DHT22;24786;51.984;5.872;2022-10-16T01:08:24;12.30;99.90
39019;DHT22;24786;51.984;5.872;2022-10-16T01:14:14;12.20;99.90
39019;DHT22;24786;51.984;5.872;2022-10-16T01:16:49;12.20;99.90
39019;DHT22;24786;51.984;5.872;2022-10-16T01:19:25;12.30;99.90
39019;DHT22;24786;51.984;5.872;2022-10-16T01:21:53;12.30;99.90
39019;DHT22;24786;51.984;5.872;2022-10-16T01:27:09;12.30;99.90
39019;DHT22;24786;51.984;5.872;2022-10-16T01:29:49;12.30;99.90
39019;DHT22;24786;51.984;5.872;2022-10-16T01:32:42;12.30;99.90
39019;DHT22;24786;51.984;5.872;2022-10-16T01:35:16;12.30;99.90
39019;DHT22;24786;51.984;5.872;2022-10-16T01:40:28;12.30;99.90
39019;DHT22;24786;51.984;5.872;2022-10-16T01:43:16;12.30;99.90
39019;DHT22;24786;51.984;5.872;2022-10-16T01:45:44;12.30;99.90
39019;DHT22;24786;51.984;5.872;2022-10-16T01:48:12;12.30;99.90
39019;DHT22;24786;51.984;5.872;2022-10-16T01:50:41;12.30;99.90
39019;DHT22;24786;51.984;5.872;2022-10-16T01:53:09;12.30;99.90
39019;DHT22;24786;51.984;5.872;2022-10-16T01:55:40;12.30;99.90
39019;DHT22;24786;51.984;5.872;2022-10-16T01:58:11;12.30;99.90
39019;DHT22;24786;51.984;5.872;2022-10-16T02:00:38;12.30;99.90
39019;DHT22;24786;51.984;5.872;2022-10-16T02:03:05;12.40;99.90
39019;DHT22;24786;51.984;5.872;2022-10-16T02:05:53;12.40;99.90
39019;DHT22;24786;51.984;5.872;2022-10-16T02:08:20;12.40;99.90
39019;DHT22;24786;51.984;5.872;2022-10-16T02:10:47;12.40;99.90
39019;DHT22;24786;51.984;5.872;2022-10-16T02:15:58;12.40;99.90
39019;DHT22;24786;51.984;5.872;2022-10-16T02:18:24;12.40;99.90
39019;DHT22;24786;51.984;5.872;2022-10-16T02:21:01;12.40;99.90
39019;DHT22;24786;51.984;5.872;2022-10-16T02:23:49;12.40;99.90
39019;DHT22;24786;51.984;5.872;2022-10-16T02:26:27;12.40;99.90
39019;DHT22;24786;51.984;5.872;2022-10-16T02:28:58;12.50;99.90
39019;DHT22;24786;51.984;5.872;2022-10-16T02:31:28;12.40;99.90
39019;DHT22;24786;51.984;5.872;2022-10-16T02:33:58;12.40;99.90
39019;DHT22;24786;51.984;5.872;2022-10-16T02:36:26;12.50;99.90
39019;DHT22;24786;51.984;5.872;2022-10-16T02:38:52;12.40;99.90
39019;DHT22;24786;51.984;5.872;2022-10-16T02:41:20;12.50;99.90
39019;DHT22;24786;51.984;5.872;2022-10-16T02:43:45;12.50;99.90
39019;DHT22;24786;51.984;5.872;2022-10-16T02:46:11;12.40;99.90
39019;DHT22;24786;51.984;5.872;2022-10-16T02:48:36;12.40;99.90
39019;DHT22;24786;51.984;5.872;2022-10-16T02:51:02;12.40;99.90
39019;DHT22;24786;51.984;5.872;2022-10-16T02:53:28;12.40;99.90
39019;DHT22;24786;51.984;5.872;2022-10-16T02:55:53;12.40;99.90
39019;DHT22;24786;51.984;5.872;2022-10-16T02:58:19;12.40;99.90
39019;DHT22;24786;51.984;5.872;2022-10-16T03:00:45;12.30;99.90
39019;DHT22;24786;51.984;5.872;2022-10-16T03:03:11;12.30;99.90
39019;DHT22;24786;51.984;5.872;2022-10-16T03:05:36;12.30;99.90
39019;DHT22;24786;51.984;5.872;2022-10-16T03:08:02;12.40;99.90
39019;DHT22;24786;51.984;5.872;2022-10-16T03:10:28;12.40;99.90
39019;DHT22;24786;51.984;5.872;2022-10-16T03:12:53;12.40;99.90
39019;DHT22;24786;51.984;5.872;2022-10-16T03:15:19;12.50;99.90
39019;DHT22;24786;51.984;5.872;2022-10-16T03:17:44;12.40;99.90
39019;DHT22;24786;51.984;5.872;2022-10-16T03:20:10;12.40;99.90
39019;DHT22;24786;51.984;5.872;2022-10-16T03:22:36;12.40;99.90
39019;DHT22;24786;51.984;5.872;2022-10-16T03:25:02;12.40;99.90
39019;DHT22;24786;51.984;5.872;2022-10-16T03:27:30;12.40;99.90
39019;DHT22;24786;51.984;5.872;2022-10-16T03:29:56;12.40;99.90
39019;DHT22;24786;51.984;5.872;2022-10-16T03:32:22;12.30;99.90
39019;DHT22;24786;51.984;5.872;2022-10-16T03:34:47;12.30;99.90
39019;DHT22;24786;51.984;5.872;2022-10-16T03:37:14;12.30;99.90
39019;DHT22;24786;51.984;5.872;2022-10-16T03:39:40;12.30;99.90
39019;DHT22;24786;51.984;5.872;2022-10-16T03:42:05;12.30;99.90
39019;DHT22;24786;51.984;5.872;2022-10-16T03:44:31;12.30;99.90
39019;DHT22;24786;51.984;5.872;2022-10-16T03:46:59;12.30;99.90
39019;DHT22;24786;51.984;5.872;2022-10-16T03:49:25;12.30;99.90
39019;DHT22;24786;51.984;5.872;2022-10-16T03:51:50;12.30;99.90
39019;DHT22;24786;51.984;5.872;2022-10-16T03:54:16;12.30;99.90
39019;DHT22;24786;51.984;5.872;2022-10-16T03:56:41;12.30;99.90
39019;DHT22;24786;51.984;5.872;2022-10-16T03:59:07;12.30;99.90
39019;DHT22;24786;51.984;5.872;2022-10-16T04:01:32;12.30;99.90
39019;DHT22;24786;51.984;5.872;2022-10-16T04:03:58;12.30;99.90
39019;DHT22;24786;51.984;5.872;2022-10-16T04:06:23;12.30;99.90
39019;DHT22;24786;51.984;5.872;2022-10-16T04:08:49;12.30;99.90
39019;DHT22;24786;51.984;5.872;2022-10-16T04:11:14;12.30;99.90
39019;DHT22;24786;51.984;5.872;2022-10-16T04:13:40;12.30;99.90
39019;DHT22;24786;51.984;5.872;2022-10-16T04:16:06;12.30;99.90
39019;DHT22;24786;51.984;5.872;2022-10-16T04:18:32;12.30;99.90
39019;DHT22;24786;51.984;5.872;2022-10-16T04:21:02;12.30;99.90
39019;DHT22;24786;51.984;5.872;2022-10-16T04:23:30;12.30;99.90
39019;DHT22;24786;51.984;5.872;2022-10-16T04:25:56;12.40;99.90
39019;DHT22;24786;51.984;5.872;2022-10-16T04:28:31;12.40;99.90
39019;DHT22;24786;51.984;5.872;2022-10-16T04:30:59;12.40;99.90
39019;DHT22;24786;51.984;5.872;2022-10-16T04:33:25;12.40;99.90
39019;DHT22;24786;51.984;5.872;2022-10-16T04:36:06;12.40;99.90
39019;DHT22;24786;51.984;5.872;2022-10-16T04:38:31;12.40;99.90
39019;DHT22;24786;51.984;5.872;2022-10-16T04:40:57;12.40;99.90
39019;DHT22;24786;51.984;5.872;2022-10-16T04:43:23;12.40;99.90
39019;DHT22;24786;51.984;5.872;2022-10-16T04:45:55;12.40;99.90
39019;DHT22;24786;51.984;5.872;2022-10-16T04:48:22;12.40;99.90
39019;DHT22;24786;51.984;5.872;2022-10-16T04:50:53;12.40;99.90
39019;DHT22;24786;51.984;5.872;2022-10-16T04:53:19;12.40;99.90
39019;DHT22;24786;51.984;5.872;2022-10-16T04:56:00;12.50;99.90
39019;DHT22;24786;51.984;5.872;2022-10-16T04:58:26;12.30;99.90
39019;DHT22;24786;51.984;5.872;2022-10-16T05:00:51;12.30;99.90
39019;DHT22;24786;51.984;5.872;2022-10-16T05:03:17;12.30;99.90
39019;DHT22;24786;51.984;5.872;2022-10-16T05:05:49;12.30;99.90
39019;DHT22;24786;51.984;5.872;2022-10-16T05:08:30;12.30;99.90
39019;DHT22;24786;51.984;5.872;2022-10-16T05:10:55;12.30;99.90
39019;DHT22;24786;51.984;5.872;2022-10-16T05:13:21;12.30;99.90
39019;DHT22;24786;51.984;5.872;2022-10-16T05:15:49;12.30;99.90
39019;DHT22;24786;51.984;5.872;2022-10-16T05:18:23;12.20;99.90
39019;DHT22;24786;51.984;5.872;2022-10-16T05:20:48;12.20;99.90
39019;DHT22;24786;51.984;5.872;2022-10-16T05:23:14;12.20;99.90
39019;DHT22;24786;51.984;5.872;2022-10-16T05:25:56;12.30;99.90
39019;DHT22;24786;51.984;5.872;2022-10-16T05:28:27;12.20;99.90
39019;DHT22;24786;51.984;5.872;2022-10-16T05:31:20;12.20;99.90
39019;DHT22;24786;51.984;5.872;2022-10-16T05:33:45;12.10;99.90
39019;DHT22;24786;51.984;5.872;2022-10-16T05:36:11;12.10;99.90
39019;DHT22;24786;51.984;5.872;2022-10-16T05:38:38;12.00;99.90
39019;DHT22;24786;51.984;5.872;2022-10-16T05:41:04;12.00;99.90
39019;DHT22;24786;51.984;5.872;2022-10-16T05:43:31;11.90;99.90
39019;DHT22;24786;51.984;5.872;2022-10-16T05:46:02;11.90;99.90
39019;DHT22;24786;51.984;5.872;2022-10-16T05:48:28;11.90;99.90
39019;DHT22;24786;51.984;5.872;2022-10-16T05:50:59;11.80;99.90
39019;DHT22;24786;51.984;5.872;2022-10-16T05:53:25;11.80;99.90
39019;DHT22;24786;51.984;5.872;2022-10-16T05:55:54;11.80;99.90
39019;DHT22;24786;51.984;5.872;2022-10-16T05:58:20;11.80;99.90
39019;DHT22;24786;51.984;5.872;2022-10-16T06:00:56;11.80;99.90
39019;DHT22;24786;51.984;5.872;2022-10-16T06:03:25;11.80;99.90
39019;DHT22;24786;51.984;5.872;2022-10-16T06:05:51;11.90;99.90
39019;DHT22;24786;51.984;5.872;2022-10-16T06:08:17;11.70;99.90
39019;DHT22;24786;51.984;5.872;2022-10-16T06:10:43;11.70;99.90
39019;DHT22;24786;51.984;5.872;2022-10-16T06:13:10;11.70;99.90
39019;DHT22;24786;51.984;5.872;2022-10-16T06:15:37;11.70;99.90
39019;DHT22;24786;51.984;5.872;2022-10-16T06:18:04;11.70;99.90
39019;DHT22;24786;51.984;5.872;2022-10-16T06:20:30;11.70;99.90
39019;DHT22;24786;51.984;5.872;2022-10-16T06:22:57;11.80;99.90
39019;DHT22;24786;51.984;5.872;2022-10-16T06:25:22;11.80;99.90
39019;DHT22;24786;51.984;5.872;2022-10-16T06:27:48;11.80;99.90
39019;DHT22;24786;51.984;5.872;2022-10-16T06:30:14;11.90;99.90
39019;DHT22;24786;51.984;5.872;2022-10-16T06:32:40;11.90;99.90
39019;DHT22;24786;51.984;5.872;2022-10-16T06:35:06;11.90;99.90
39019;DHT22;24786;51.984;5.872;2022-10-16T06:37:31;11.90;99.90
39019;DHT22;24786;51.984;5.872;2022-10-16T06:39:57;11.90;99.90
39019;DHT22;24786;51.984;5.872;2022-10-16T06:42:23;12.00;99.90
39019;DHT22;24786;51.984;5.872;2022-10-16T06:44:48;12.10;99.90
39019;DHT22;24786;51.984;5.872;2022-10-16T06:47:14;12.10;99.90
39019;DHT22;24786;51.984;5.872;2022-10-16T06:49:39;12.20;99.90
39019;DHT22;24786;51.984;5.872;2022-10-16T06:52:05;12.20;99.90
39019;DHT22;24786;51.984;5.872;2022-10-16T06:54:30;12.20;99.90
39019;DHT22;24786;51.984;5.872;2022-10-16T06:56:56;12.30;99.90
39019;DHT22;24786;51.984;5.872;2022-10-16T06:59:22;12.30;99.90
39019;DHT22;24786;51.984;5.872;2022-10-16T07:01:48;12.30;99.90
39019;DHT22;24786;51.984;5.872;2022-10-16T07:04:13;12.40;99.90
39019;DHT22;24786;51.984;5.872;2022-10-16T07:06:39;12.40;99.90
39019;DHT22;24786;51.984;5.872;2022-10-16T07:09:07;12.40;99.90
39019;DHT22;24786;51.984;5.872;2022-10-16T07:11:34;12.40;99.90
39019;DHT22;24786;51.984;5.872;2022-10-16T07:14:01;12.40;99.90
39019;DHT22;24786;51.984;5.872;2022-10-16T07:16:29;12.50;99.90
39019;DHT22;24786;51.984;5.872;2022-10-16T07:18:56;12.50;99.90
39019;DHT22;24786;51.984;5.872;2022-10-16T07:21:26;12.60;99.90
39019;DHT22;24786;51.984;5.872;2022-10-16T07:23:56;12.70;99.90
39019;DHT22;24786;51.984;5.872;2022-10-16T07:26:22;12.70;99.90
39019;DHT22;24786;51.984;5.872;2022-10-16T07:28:49;12.70;99.90
39019;DHT22;24786;51.984;5.872;2022-10-16T07:31:16;12.70;99.90
39019;DHT22;24786;51.984;5.872;2022-10-16T07:33:43;12.80;99.90
39019;DHT22;24786;51.984;5.872;2022-10-16T07:36:10;12.90;99.90
39019;DHT22;24786;51.984;5.872;2022-10-16T07:38:36;13.00;99.90
39019;DHT22;24786;51.984;5.872;2022-10-16T07:41:07;13.00;99.90
39019;DHT22;24786;51.984;5.872;2022-10-16T07:43:33;13.10;99.90
39019;DHT22;24786;51.984;5.872;2022-10-16T07:45:59;13.20;99.90
39019;DHT22;24786;51.984;5.872;2022-10-16T07:48:30;13.20;99.90
39019;DHT22;24786;51.984;5.872;2022-10-16T07:51:09;13.20;99.90
39019;DHT22;24786;51.984;5.872;2022-10-16T07:53:47;13.30;99.90
39019;DHT22;24786;51.984;5.872;2022-10-16T07:56:25;13.50;99.90
39019;DHT22;24786;51.984;5.872;2022-10-16T07:58:51;13.60;99.90
39019;DHT22;24786;51.984;5.872;2022-10-16T08:01:18;13.60;99.90
39019;DHT22;24786;51.984;5.872;2022-10-16T08:03:56;13.70;99.90
39019;DHT22;24786;51.984;5.872;2022-10-16T08:06:28;13.80;99.90
39019;DHT22;24786;51.984;5.872;2022-10-16T08:08:55;13.80;99.90
39019;DHT22;24786;51.984;5.872;2022-10-16T08:11:21;13.90;99.90
39019;DHT22;24786;51.984;5.872;2022-10-16T08:13:47;14.00;99.90
39019;DHT22;24786;51.984;5.872;2022-10-16T08:16:21;14.10;99.90
39019;DHT22;24786;51.984;5.872;2022-10-16T08:18:57;14.20;99.90
39019;DHT22;24786;51.984;5.872;2022-10-16T08:21:31;14.30;99.90
39019;DHT22;24786;51.984;5.872;2022-10-16T08:24:03;14.30;99.90
39019;DHT22;24786;51.984;5.872;2022-10-16T08:26:29;14.40;99.90
39019;DHT22;24786;51.984;5.872;2022-10-16T08:28:55;14.50;99.90
39019;DHT22;24786;51.984;5.872;2022-10-16T08:31:22;14.50;99.90
39019;DHT22;24786;51.984;5.872;2022-10-16T08:33:59;14.50;99.90
39019;DHT22;24786;51.984;5.872;2022-10-16T08:36:25;14.50;99.90
39019;DHT22;24786;51.984;5.872;2022-10-16T08:38:51;14.50;99.90
39019;DHT22;24786;51.984;5.872;2022-10-16T08:41:46;14.50;99.90
39019;DHT22;24786;51.984;5.872;2022-10-16T08:44:25;14.40;99.90
39019;DHT22;24786;51.984;5.872;2022-10-16T08:49:44;14.40;99.90
39019;DHT22;24786;51.984;5.872;2022-10-16T08:52:13;14.40;99.90
39019;DHT22;24786;51.984;5.872;2022-10-16T08:54:43;14.30;99.90
39019;DHT22;24786;51.984;5.872;2022-10-16T08:57:17;14.40;99.90
39019;DHT22;24786;51.984;5.872;2022-10-16T08:59:44;14.30;99.90
39019;DHT22;24786;51.984;5.872;2022-10-16T09:02:24;14.40;99.90
39019;DHT22;24786;51.984;5.872;2022-10-16T09:16:23;14.50;99.90
39019;DHT22;24786;51.984;5.872;2022-10-16T09:21:30;14.60;99.90
39019;DHT22;24786;51.984;5.872;2022-10-16T09:24:09;14.60;99.90
39019;DHT22;24786;51.984;5.872;2022-10-16T09:26:39;14.70;99.90
39019;DHT22;24786;51.984;5.872;2022-10-16T09:29:05;14.70;99.90
39019;DHT22;24786;51.984;5.872;2022-10-16T09:31:36;14.70;99.90
39019;DHT22;24786;51.984;5.872;2022-10-16T09:34:03;14.90;99.90
39019;DHT22;24786;51.984;5.872;2022-10-16T09:36:42;14.80;99.90
39019;DHT22;24786;51.984;5.872;2022-10-16T09:39:10;14.90;99.90
39019;DHT22;24786;51.984;5.872;2022-10-16T09:41:39;14.90;99.90
39019;DHT22;24786;51.984;5.872;2022-10-16T09:44:21;15.00;99.90
39019;DHT22;24786;51.984;5.872;2022-10-16T09:46:47;15.10;99.90
39019;DHT22;24786;51.984;5.872;2022-10-16T09:49:26;15.00;99.90
39019;DHT22;24786;51.984;5.872;2022-10-16T09:52:13;15.10;99.90
39019;DHT22;24786;51.984;5.872;2022-10-16T09:54:50;15.10;99.90
39019;DHT22;24786;51.984;5.872;2022-10-16T09:57:15;15.10;99.90
39019;DHT22;24786;51.984;5.872;2022-10-16T09:59:54;15.10;99.90
39019;DHT22;24786;51.984;5.872;2022-10-16T10:02:28;15.20;99.90
39019;DHT22;24786;51.984;5.872;2022-10-16T10:04:55;15.30;99.90
39019;DHT22;24786;51.984;5.872;2022-10-16T10:07:28;15.30;99.90
39019;DHT22;24786;51.984;5.872;2022-10-16T10:09:58;15.30;99.90
39019;DHT22;24786;51.984;5.872;2022-10-16T10:12:26;15.40;99.90
39019;DHT22;24786;51.984;5.872;2022-10-16T10:14:55;15.40;99.90
39019;DHT22;24786;51.984;5.872;2022-10-16T10:17:23;15.60;99.90
39019;DHT22;24786;51.984;5.872;2022-10-16T10:22:41;15.80;99.90
39019;DHT22;24786;51.984;5.872;2022-10-16T10:30:55;15.90;99.90
39019;DHT22;24786;51.984;5.872;2022-10-16T10:33:48;16.00;99.90
39019;DHT22;24786;51.984;5.872;2022-10-16T10:36:39;16.10;99.90
39019;DHT22;24786;51.984;5.872;2022-10-16T10:42:04;16.30;99.90
39019;DHT22;24786;51.984;5.872;2022-10-16T10:47:16;16.50;99.90
39019;DHT22;24786;51.984;5.872;2022-10-16T10:52:53;16.70;99.90
39019;DHT22;24786;51.984;5.872;2022-10-16T10:55:40;16.80;99.90
39019;DHT22;24786;51.984;5.872;2022-10-16T11:01:15;16.90;99.90
39019;DHT22;24786;51.984;5.872;2022-10-16T11:04:15;16.90;99.90
39019;DHT22;24786;51.984;5.872;2022-10-16T11:06:51;17.00;99.90
39019;DHT22;24786;51.984;5.872;2022-10-16T11:09:21;17.00;99.90
39019;DHT22;24786;51.984;5.872;2022-10-16T11:11:59;17.10;99.90
39019;DHT22;24786;51.984;5.872;2022-10-16T11:14:34;17.00;99.90
39019;DHT22;24786;51.984;5.872;2022-10-16T11:23:02;16.90;99.90
39019;DHT22;24786;51.984;5.872;2022-10-16T11:25:31;16.80;99.90
39019;DHT22;24786;51.984;5.872;2022-10-16T11:28:14;16.90;99.90
39019;DHT22;24786;51.984;5.872;2022-10-16T11:30:51;17.00;99.90
39019;DHT22;24786;51.984;5.872;2022-10-16T11:33:48;17.10;99.90
39019;DHT22;24786;51.984;5.872;2022-10-16T11:36:39;17.20;99.90
39019;DHT22;24786;51.984;5.872;2022-10-16T11:39:22;17.20;99.90
39019;DHT22;24786;51.984;5.872;2022-10-16T11:41:54;17.30;99.90
39019;DHT22;24786;51.984;5.872;2022-10-16T11:47:27;17.30;99.90
39019;DHT22;24786;51.984;5.872;2022-10-16T11:53:16;17.30;99.90
39019;DHT22;24786;51.984;5.872;2022-10-16T11:55:46;17.20;99.90
39019;DHT22;24786;51.984;5.872;2022-10-16T11:58:31;17.30;99.90
39019;DHT22;24786;51.984;5.872;2022-10-16T12:04:12;17.50;99.90
39019;DHT22;24786;51.984;5.872;2022-10-16T12:06:43;17.70;99.90
39019;DHT22;24786;51.984;5.872;2022-10-16T12:09:23;17.70;99.90
39019;DHT22;24786;51.984;5.872;2022-10-16T12:11:50;17.70;99.90
39019;DHT22;24786;51.984;5.872;2022-10-16T12:16:55;17.80;99.90
39019;DHT22;24786;51.984;5.872;2022-10-16T12:19:22;17.80;99.90
39019;DHT22;24786;51.984;5.872;2022-10-16T12:21:49;17.80;99.90
39019;DHT22;24786;51.984;5.872;2022-10-16T12:26:51;17.80;99.90
39019;DHT22;24786;51.984;5.872;2022-10-16T12:29:28;17.70;99.90
39019;DHT22;24786;51.984;5.872;2022-10-16T12:31:55;17.70;99.90
39019;DHT22;24786;51.984;5.872;2022-10-16T12:34:38;17.70;99.90
39019;DHT22;24786;51.984;5.872;2022-10-16T12:37:28;17.60;99.90
39019;DHT22;24786;51.984;5.872;2022-10-16T12:40:14;17.50;99.90
39019;DHT22;24786;51.984;5.872;2022-10-16T12:42:49;17.50;99.90
39019;DHT22;24786;51.984;5.872;2022-10-16T12:45:40;17.50;99.90
39019;DHT22;24786;51.984;5.872;2022-10-16T12:48:24;17.60;99.90
39019;DHT22;24786;51.984;5.872;2022-10-16T12:50:49;17.70;99.90
39019;DHT22;24786;51.984;5.872;2022-10-16T12:53:21;17.70;99.90
39019;DHT22;24786;51.984;5.872;2022-10-16T12:59:38;17.70;99.90
39019;DHT22;24786;51.984;5.872;2022-10-16T13:17:08;17.90;99.90
39019;DHT22;24786;51.984;5.872;2022-10-16T13:25:22;18.00;99.90
39019;DHT22;24786;51.984;5.872;2022-10-16T13:28:04;17.90;99.90
39019;DHT22;24786;51.984;5.872;2022-10-16T13:30:37;17.90;99.90
39019;DHT22;24786;51.984;5.872;2022-10-16T13:33:16;17.90;99.90
39019;DHT22;24786;51.984;5.872;2022-10-16T13:35:54;17.90;99.90
39019;DHT22;24786;51.984;5.872;2022-10-16T13:38:22;17.90;99.90
39019;DHT22;24786;51.984;5.872;2022-10-16T13:41:03;17.80;99.90
39019;DHT22;24786;51.984;5.872;2022-10-16T13:43:39;17.80;99.90
39019;DHT22;24786;51.984;5.872;2022-10-16T13:46:25;17.70;99.90
39019;DHT22;24786;51.984;5.872;2022-10-16T13:49:01;17.80;99.90
39019;DHT22;24786;51.984;5.872;2022-10-16T13:51:28;17.70;99.90
39019;DHT22;24786;51.984;5.872;2022-10-16T13:54:09;17.70;99.90
39019;DHT22;24786;51.984;5.872;2022-10-16T13:56:38;17.70;99.90
39019;DHT22;24786;51.984;5.872;2022-10-16T13:59:06;17.80;99.90
39019;DHT22;24786;51.984;5.872;2022-10-16T14:01:35;17.90;99.90
39019;DHT22;24786;51.984;5.872;2022-10-16T14:04:17;17.90;99.90
39019;DHT22;24786;51.984;5.872;2022-10-16T14:07:00;18.00;99.90
39019;DHT22;24786;51.984;5.872;2022-10-16T14:09:29;18.00;99.90
39019;DHT22;24786;51.984;5.872;2022-10-16T14:12:07;18.00;99.90
39019;DHT22;24786;51.984;5.872;2022-10-16T14:14:45;17.90;99.90
39019;DHT22;24786;51.984;5.872;2022-10-16T14:17:26;18.00;99.90
39019;DHT22;24786;51.984;5.872;2022-10-16T14:19:55;17.90;99.90
39019;DHT22;24786;51.984;5.872;2022-10-16T14:22:39;17.90;99.90
39019;DHT22;24786;51.984;5.872;2022-10-16T14:28:02;17.80;99.90
39019;DHT22;24786;51.984;5.872;2022-10-16T14:33:55;17.70;99.90
39019;DHT22;24786;51.984;5.872;2022-10-16T14:36:28;17.70;99.90
39019;DHT22;24786;51.984;5.872;2022-10-16T14:39:29;17.80;99.90
39019;DHT22;24786;51.984;5.872;2022-10-16T14:42:16;17.70;99.90
39019;DHT22;24786;51.984;5.872;2022-10-16T14:44:56;17.70;99.90
39019;DHT22;24786;51.984;5.872;2022-10-16T14:48:12;17.60;99.90
39019;DHT22;24786;51.984;5.872;2022-10-16T14:50:41;17.60;99.90
39019;DHT22;24786;51.984;5.872;2022-10-16T14:53:14;17.50;99.90
39019;DHT22;24786;51.984;5.872;2022-10-16T14:55:52;17.60;99.90
39019;DHT22;24786;51.984;5.872;2022-10-16T14:58:37;17.40;99.90
39019;DHT22;24786;51.984;5.872;2022-10-16T15:01:03;17.40;99.90
39019;DHT22;24786;51.984;5.872;2022-10-16T15:03:28;17.30;99.90
39019;DHT22;24786;51.984;5.872;2022-10-16T15:05:54;17.30;99.90
39019;DHT22;24786;51.984;5.872;2022-10-16T15:08:25;17.30;99.90
39019;DHT22;24786;51.984;5.872;2022-10-16T15:10:51;17.40;99.90
39019;DHT22;24786;51.984;5.872;2022-10-16T15:13:26;17.40;99.90
39019;DHT22;24786;51.984;5.872;2022-10-16T15:15:53;17.40;99.90
39019;DHT22;24786;51.984;5.872;2022-10-16T15:18:18;17.30;99.90
39019;DHT22;24786;51.984;5.872;2022-10-16T15:20:57;17.40;99.90
39019;DHT22;24786;51.984;5.872;2022-10-16T15:23:23;17.20;99.90
39019;DHT22;24786;51.984;5.872;2022-10-16T15:25:53;17.30;99.90
39019;DHT22;24786;51.984;5.872;2022-10-16T15:28:20;17.20;99.90
39019;DHT22;24786;51.984;5.872;2022-10-16T15:30:48;17.10;99.90
39019;DHT22;24786;51.984;5.872;2022-10-16T15:33:16;17.10;99.90
39019;DHT22;24786;51.984;5.872;2022-10-16T15:35:42;17.10;99.90
39019;DHT22;24786;51.984;5.872;2022-10-16T15:38:19;17.00;99.90
39019;DHT22;24786;51.984;5.872;2022-10-16T15:41:01;17.00;99.90
39019;DHT22;24786;51.984;5.872;2022-10-16T15:43:27;16.90;99.90
39019;DHT22;24786;51.984;5.872;2022-10-16T15:46:08;16.90;99.90
39019;DHT22;24786;51.984;5.872;2022-10-16T15:48:35;16.80;99.90
39019;DHT22;24786;51.984;5.872;2022-10-16T15:51:07;16.80;99.90
39019;DHT22;24786;51.984;5.872;2022-10-16T15:53:33;16.80;99.90
39019;DHT22;24786;51.984;5.872;2022-10-16T15:56:10;16.70;99.90
39019;DHT22;24786;51.984;5.872;2022-10-16T15:58:37;16.70;99.90
39019;DHT22;24786;51.984;5.872;2022-10-16T16:01:31;16.60;99.90
39019;DHT22;24786;51.984;5.872;2022-10-16T16:04:22;16.50;99.90
39019;DHT22;24786;51.984;5.872;2022-10-16T16:07:13;16.40;99.90
39019;DHT22;24786;51.984;5.872;2022-10-16T16:09:57;16.40;99.90
39019;DHT22;24786;51.984;5.872;2022-10-16T16:12:40;16.30;99.90
39019;DHT22;24786;51.984;5.872;2022-10-16T16:15:07;16.30;99.90
39019;DHT22;24786;51.984;5.872;2022-10-16T16:17:34;16.20;99.90
39019;DHT22;24786;51.984;5.872;2022-10-16T16:20:06;16.20;99.90
39019;DHT22;24786;51.984;5.872;2022-10-16T16:22:32;16.10;99.90
39019;DHT22;24786;51.984;5.872;2022-10-16T16:27:33;16.00;99.90
39019;DHT22;24786;51.984;5.872;2022-10-16T16:30:11;16.00;99.90
39019;DHT22;24786;51.984;5.872;2022-10-16T16:32:46;16.00;99.90
39019;DHT22;24786;51.984;5.872;2022-10-16T16:35:12;15.90;99.90
39019;DHT22;24786;51.984;5.872;2022-10-16T16:37:42;15.80;99.90
39019;DHT22;24786;51.984;5.872;2022-10-16T16:40:11;15.80;99.90
39019;DHT22;24786;51.984;5.872;2022-10-16T16:42:36;15.70;99.90
39019;DHT22;24786;51.984;5.872;2022-10-16T16:45:05;15.70;99.90
39019;DHT22;24786;51.984;5.872;2022-10-16T16:47:31;15.60;99.90
39019;DHT22;24786;51.984;5.872;2022-10-16T16:50:09;15.60;99.90
39019;DHT22;24786;51.984;5.872;2022-10-16T16:52:49;15.60;99.90
39019;DHT22;24786;51.984;5.872;2022-10-16T16:55:15;15.50;99.90
39019;DHT22;24786;51.984;5.872;2022-10-16T16:57:48;15.50;99.90
39019;DHT22;24786;51.984;5.872;2022-10-16T17:00:14;15.50;99.90
39019;DHT22;24786;51.984;5.872;2022-10-16T17:02:39;15.40;99.90
39019;DHT22;24786;51.984;5.872;2022-10-16T17:05:18;15.40;99.90
39019;DHT22;24786;51.984;5.872;2022-10-16T17:07:44;15.40;99.90
39019;DHT22;24786;51.984;5.872;2022-10-16T17:10:09;15.40;99.90
39019;DHT22;24786;51.984;5.872;2022-10-16T17:12:45;15.40;99.90
39019;DHT22;24786;51.984;5.872;2022-10-16T17:15:17;15.30;99.90
39019;DHT22;24786;51.984;5.872;2022-10-16T17:18:07;15.30;99.90
39019;DHT22;24786;51.984;5.872;2022-10-16T17:20:45;15.20;99.90
39019;DHT22;24786;51.984;5.872;2022-10-16T17:23:16;15.20;99.90
39019;DHT22;24786;51.984;5.872;2022-10-16T17:28:30;15.10;99.90
39019;DHT22;24786;51.984;5.872;2022-10-16T17:30:55;15.10;99.90
39019;DHT22;24786;51.984;5.872;2022-10-16T17:33:21;15.00;99.90
39019;DHT22;24786;51.984;5.872;2022-10-16T17:35:47;15.10;99.90
39019;DHT22;24786;51.984;5.872;2022-10-16T17:38:13;15.10;99.90
39019;DHT22;24786;51.984;5.872;2022-10-16T17:40:41;15.10;99.90